createdAt,value
2022-08-07T07:53:04.195Z,44.669998
2022-08-07T07:54:13.816Z,44.764
2022-08-07T07:55:22.947Z,44.716999
2022-08-07T07:56:33.035Z,44.858002
2022-08-07T07:57:44.197Z,44.898998
2022-08-07T07:58:51.162Z,44.852001
2022-08-07T08:00:00.717Z,45.019001
2022-08-07T08:02:01.112Z,44.994999
2022-08-07T08:02:22.782Z,44.626999
2022-08-07T08:04:06.855Z,44.515999
2022-08-07T08:04:39.978Z,44.844002
2022-08-07T08:05:54.589Z,44.907001
2022-08-07T08:07:02.753Z,44.854
2022-08-07T08:08:15.982Z,44.332001
2022-08-07T08:09:22.949Z,44.582001
2022-08-07T08:10:35.830Z,44.735001
2022-08-07T08:11:47.145Z,44.395
2022-08-07T08:12:52.803Z,44.416
2022-08-07T08:14:01.481Z,44.282001
2022-08-07T08:15:12.038Z,44.251999
2022-08-07T08:16:19.606Z,44.186001
2022-08-07T08:17:56.831Z,44.233002
2022-08-07T08:18:39.704Z,43.805
2022-08-07T08:20:16.452Z,43.729
2022-08-07T08:21:00.864Z,43.742001
2022-08-07T08:22:10.531Z,43.662998
2022-08-07T08:23:18.864Z,43.792999
2022-08-07T08:24:36.090Z,43.667
2022-08-07T08:25:42.656Z,43.285999
2022-08-07T08:26:50.741Z,43.234001
2022-08-07T08:28:02.042Z,43.070999
2022-08-07T08:29:09.642Z,43.099998
2022-08-07T08:30:19.514Z,42.653999
2022-08-07T08:31:30.010Z,42.417999
2022-08-07T08:32:39.298Z,42.060001
2022-08-07T08:33:49.206Z,42.075001
2022-08-07T08:34:58.435Z,42.275002
2022-08-07T08:36:06.010Z,42.254002
2022-08-07T08:37:32.119Z,42.428001
2022-08-07T08:38:29.243Z,42.513
2022-08-07T08:39:39.232Z,42.424
2022-08-07T08:40:48.095Z,41.895
2022-08-07T08:41:59.270Z,41.833
2022-08-07T08:43:07.234Z,41.597
2022-08-07T08:44:16.743Z,41.855999
2022-08-07T08:45:41.788Z,41.854
2022-08-07T08:46:38.098Z,41.973
2022-08-07T08:47:47.471Z,42.091
2022-08-07T08:48:56.917Z,41.91
2022-08-07T08:50:06.003Z,41.950001
2022-08-07T08:51:23.261Z,42.099998
2022-08-07T08:52:30.432Z,42.083
2022-08-07T08:53:36.192Z,41.889
2022-08-07T08:54:43.771Z,42.041
2022-08-07T08:55:58.210Z,42.068001
2022-08-07T08:57:02.831Z,42.259998
2022-08-07T08:58:13.132Z,42.113998
2022-08-07T08:59:22.882Z,41.919998
2022-08-07T09:00:32.565Z,42.241001
2022-08-07T09:01:44.079Z,42.081001
2022-08-07T09:02:53.764Z,42.073002
2022-08-07T09:04:02.250Z,41.900002
2022-08-07T09:05:14.641Z,41.571999
2022-08-07T09:06:21.410Z,41.395
2022-08-07T09:07:34.128Z,41.500999
2022-08-07T09:08:42.495Z,41.368
2022-08-07T09:09:56.493Z,41.345001
2022-08-07T09:11:01.719Z,41.234001
2022-08-07T09:12:19.889Z,41.248001
2022-08-07T09:13:20.795Z,41.401001
2022-08-07T09:14:31.310Z,41.467999
2022-08-07T09:16:20.948Z,41.018002
2022-08-07T09:16:49.425Z,41.143002
2022-08-07T09:17:58.758Z,41.113998
2022-08-07T09:19:44.887Z,40.841999
2022-08-07T09:20:35.073Z,40.854
2022-08-07T09:21:34.576Z,40.702999
2022-08-07T09:24:29.640Z,40.515999
2022-08-07T09:24:29.855Z,40.509998
2022-08-07T09:25:07.203Z,40.463001
2022-08-07T09:26:08.712Z,40.764
2022-08-07T09:27:19.257Z,41.078999
2022-08-07T09:29:24.681Z,41.263
2022-08-07T09:30:02.634Z,41.171001
2022-08-07T09:30:50.612Z,41.431
2022-08-07T09:31:57.474Z,41.750999
2022-08-07T09:33:16.303Z,42.054001
2022-08-07T09:34:16.603Z,42.172001
2022-08-07T09:36:01.776Z,42.188999
2022-08-07T09:36:37.117Z,42.129002
2022-08-07T09:37:48.009Z,42.278
2022-08-07T09:38:55.900Z,42.318001
2022-08-07T09:40:06.512Z,42.324001
2022-08-07T09:41:16.072Z,42.445
2022-08-07T09:42:26.361Z,42.508999
2022-08-07T09:43:40.380Z,42.532001
2022-08-07T09:46:28.895Z,42.488998
2022-08-07T09:46:28.970Z,42.500999
2022-08-07T09:47:26.496Z,42.507
2022-08-07T09:48:19.326Z,42.502998
2022-08-07T09:50:00.276Z,42.508999
2022-08-07T09:50:39.840Z,42.514999
2022-08-07T09:52:11.194Z,42.550999
2022-08-07T09:52:59.447Z,42.609001
2022-08-07T09:54:08.027Z,42.681
2022-08-07T09:55:29.233Z,42.727001
2022-08-07T09:56:33.783Z,42.775002
2022-08-07T09:57:46.573Z,42.786999
2022-08-07T09:58:51.168Z,42.765999
2022-08-07T10:00:00.502Z,42.794998
2022-08-07T10:01:14.783Z,42.804001
2022-08-07T10:02:19.094Z,42.778
2022-08-07T10:04:04.402Z,42.765999
2022-08-07T10:04:39.412Z,42.785
2022-08-07T10:05:58.335Z,42.733002
2022-08-07T10:06:59.333Z,42.773998
2022-08-07T10:08:08.930Z,42.754002
2022-08-07T10:09:23.767Z,42.717999
2022-08-07T10:10:30.070Z,42.647999
2022-08-07T10:12:00.831Z,42.632999
2022-08-07T10:12:52.831Z,42.615002
2022-08-07T10:14:01.120Z,42.598
2022-08-07T10:15:15.042Z,42.537998
2022-08-07T10:16:19.899Z,42.497002
2022-08-07T10:17:33.543Z,42.497002
2022-08-07T10:18:39.986Z,42.437
2022-08-07T10:19:48.529Z,42.390999
2022-08-07T10:20:58.090Z,42.348999
2022-08-07T10:22:16.491Z,42.366001
2022-08-07T10:23:18.171Z,42.326
2022-08-07T10:24:28.717Z,42.208
2022-08-07T10:25:42.687Z,42.181
2022-08-07T10:26:51.747Z,42.174999
2022-08-07T10:27:58.432Z,42.187
2022-08-07T10:29:07.996Z,42.146
2022-08-07T10:30:16.570Z,42.035
2022-08-07T10:31:26.147Z,42.007999
2022-08-07T10:32:51.203Z,41.979
2022-08-07T10:34:07.054Z,41.985001
2022-08-07T10:34:56.813Z,41.979
2022-08-07T10:36:11.185Z,41.884998
2022-08-07T10:37:15.929Z,41.819
2022-08-07T10:38:35.535Z,41.769001
2022-08-07T10:39:41.116Z,41.694
2022-08-07T10:40:46.548Z,41.605999
2022-08-07T10:42:00.287Z,41.613998
2022-08-07T10:43:05.676Z,41.530998
2022-08-07T10:44:14.248Z,41.479
2022-08-07T10:45:44.236Z,41.308998
2022-08-07T10:46:34.418Z,41.126999
2022-08-07T10:47:50.709Z,41.403
2022-08-07T10:48:54.628Z,41.320999
2022-08-07T10:50:03.304Z,41.344002
2022-08-07T10:51:16.239Z,41.25
2022-08-07T10:52:31.685Z,41.269001
2022-08-07T10:53:41.683Z,41.227001
2022-08-07T10:54:49.039Z,41.122002
2022-08-07T10:55:56.245Z,41.118999
2022-08-07T10:57:05.774Z,41.049
2022-08-07T10:58:14.335Z,41.242001
2022-08-07T10:59:25.023Z,41.166
2022-08-07T11:00:37.090Z,41.162998
2022-08-07T11:01:51.233Z,40.904999
2022-08-07T11:02:56.675Z,41.042999
2022-08-07T11:04:16.818Z,40.849998
2022-08-07T11:05:16.854Z,41.118999
2022-08-07T11:06:27.407Z,40.654999
2022-08-07T11:07:57.056Z,40.682999
2022-08-07T11:08:45.475Z,40.241001
2022-08-07T11:10:08.307Z,39.868999
2022-08-07T11:11:04.561Z,39.883999
2022-08-07T11:12:13.125Z,39.731998
2022-08-07T11:13:42.612Z,39.941002
2022-08-07T11:14:43.195Z,39.895
2022-08-07T11:15:54.242Z,40.068001
2022-08-07T11:16:58.028Z,39.228001
2022-08-07T11:18:04.887Z,39.778999
2022-08-07T11:19:21.497Z,39.68
2022-08-07T11:20:25.977Z,39.900002
2022-08-07T11:21:34.560Z,39.061001
2022-08-07T11:22:46.352Z,39.563999
2022-08-07T11:23:54.657Z,39.705002
2022-08-07T11:25:06.456Z,39.422001
2022-08-07T11:26:14.721Z,39.495998
2022-08-07T11:27:33.666Z,39.264999
2022-08-07T11:28:30.783Z,38.838001
2022-08-07T11:29:41.641Z,38.740002
2022-08-07T11:30:49.944Z,38.747002
2022-08-07T11:31:59.471Z,39.040001
2022-08-07T11:33:14.105Z,39.185001
2022-08-07T11:34:18.596Z,38.917999
2022-08-07T11:35:28.142Z,39.125999
2022-08-07T11:36:35.676Z,39.277
2022-08-07T11:37:57.604Z,39.334
2022-08-07T11:38:55.747Z,39.507999
2022-08-07T11:40:04.404Z,39.381001
2022-08-07T11:41:18.094Z,39.585999
2022-08-07T11:42:29.382Z,39.355
2022-08-07T11:43:41.430Z,39.186001
2022-08-07T11:44:52.173Z,39.181
2022-08-07T11:45:56.050Z,39.43
2022-08-07T11:47:04.643Z,38.944
2022-08-07T11:48:18.105Z,38.990002
2022-08-07T11:49:28.916Z,39.02
2022-08-07T11:50:35.299Z,39.313
2022-08-07T11:51:46.726Z,39.277
2022-08-07T11:52:54.427Z,39.229
2022-08-07T11:54:09.826Z,39.264
2022-08-07T11:55:18.753Z,39.247002
2022-08-07T11:56:27.947Z,39.053001
2022-08-07T11:57:58.293Z,39.209
2022-08-07T11:58:49.809Z,38.926998
2022-08-07T12:00:08.476Z,38.752998
2022-08-07T12:01:06.767Z,38.880001
2022-08-07T12:02:17.613Z,38.938
2022-08-07T12:03:41.140Z,38.908001
2022-08-07T12:04:36.671Z,38.987
2022-08-07T12:06:36.587Z,39.043999
2022-08-07T12:07:27.038Z,39.229
2022-08-07T12:08:34.699Z,39.137001
2022-08-07T12:09:42.264Z,39.188999
2022-08-07T12:11:00.846Z,39.226002
2022-08-07T12:12:08.944Z,39.139999
2022-08-07T12:13:16.960Z,39.030998
2022-08-07T12:14:23.412Z,39.092999
2022-08-07T12:15:36.045Z,39.018002
2022-08-07T12:16:43.556Z,39.012001
2022-08-07T12:17:59.112Z,38.676998
2022-08-07T12:19:02.663Z,38.618999
2022-08-07T12:20:21.213Z,38.521
2022-08-07T12:21:55.276Z,38.240002
2022-08-07T12:22:38.277Z,38.498001
2022-08-07T12:24:05.168Z,38.237999
2022-08-07T12:25:02.185Z,38.186001
2022-08-07T12:26:22.542Z,38.674999
2022-08-07T12:27:16.066Z,38.744999
2022-08-07T12:28:30.901Z,38.882
2022-08-07T12:29:37.359Z,39.132
2022-08-07T12:30:46.618Z,39.171001
2022-08-07T12:32:02.415Z,39.220001
2022-08-07T12:33:09.237Z,39.173
2022-08-07T12:34:16.629Z,39.220001
2022-08-07T12:35:29.274Z,39.382
2022-08-07T12:36:37.768Z,39.069
2022-08-07T12:38:10.516Z,39.143002
2022-08-07T12:38:58.944Z,39.176998
2022-08-07T12:40:19.275Z,39.347
2022-08-07T12:41:18.117Z,39.358002
2022-08-07T12:42:31.800Z,39.285999
2022-08-07T12:44:01.610Z,39.251999
2022-08-07T12:44:48.768Z,39.402
2022-08-07T12:45:57.301Z,39.576
2022-08-07T12:47:06.894Z,39.561001
2022-08-07T12:48:27.602Z,39.479
2022-08-07T12:49:40.293Z,39.416
2022-08-07T12:50:39.743Z,39.287998
2022-08-07T12:51:51.190Z,39.248001
2022-08-07T12:52:58.141Z,39.254002
2022-08-07T12:54:24.403Z,39.046001
